To NAV CANADA Home Page Login to a new session Search on AWWS site Feedback and Comments Disclaimer Vers la page française équivalente Tips FAQ What's new on the site To the Forecasts and Observations / NOTAM section To "File a Flight Plan" website Publications and other links Update of the User's profile FIC Telephone Numbers My Weather Data Folder Route Weather Data Regional Weather Data Local Weather Data To the Forecasts and Observations / NOTAM section
Request Generated 04/24/2014 at 14:49:01 UTC . Weather information available at that time is displayed.

METAR/TAF

ISLAND LAKE/MB    

METAR CYIV 241400Z 06010G15KT 15SM FEW012 BKN100 BKN250 M03/M05 A3012 RMK SF1AC5CI0 SLP211=
METAR CYIV 241300Z 06011G19KT 15SM BKN250 M03/M05 A3011 RMK CI1 SLP208=
METAR CYIV 241200Z 08012KT 15SM BKN250 M04/M06 A3011 RMK CI0 SNW CVR/TRACE LOOSE SLP208=

TAF CYIV 241238Z 2413/2501 08012KT P6SM FEW012 BKN200 TEMPO 2413/2416
BKN012 OVC200
FM241600 08012G22KT P6SM BKN200
RMK NXT FCST BY 241900Z=
Your time UTC time
Weather data provided by Environment Canada and NAV CANADA